createdAt,value
2019-05-13T00:00:24.054Z,9.40
2019-05-13T00:02:54.423Z,9.40
2019-05-13T00:05:23.433Z,9.30
2019-05-13T00:07:53.820Z,9.30
2019-05-13T00:10:24.183Z,9.20
2019-05-13T00:12:53.992Z,9.10
2019-05-13T00:15:24.335Z,9.10
2019-05-13T00:17:54.393Z,9.00
2019-05-13T00:20:24.161Z,9.00
2019-05-13T00:22:53.815Z,9.00
2019-05-13T00:25:24.233Z,8.80
2019-05-13T00:27:53.662Z,8.70
2019-05-13T00:30:23.513Z,8.60
2019-05-13T00:32:54.434Z,8.60
2019-05-13T00:35:23.318Z,8.60
2019-05-13T00:37:54.147Z,8.60
2019-05-13T00:40:24.053Z,8.50
2019-05-13T00:42:54.391Z,8.50
2019-05-13T00:45:24.475Z,8.40
2019-05-13T00:47:53.709Z,8.40
2019-05-13T00:50:24.052Z,8.30
2019-05-13T00:52:53.685Z,8.30
2019-05-13T00:55:23.795Z,8.20
2019-05-13T00:57:54.089Z,8.10
2019-05-13T01:00:24.343Z,8.10
2019-05-13T01:02:53.398Z,8.00
2019-05-13T01:05:23.397Z,7.90
2019-05-13T01:07:53.680Z,7.80
2019-05-13T01:10:23.750Z,7.80
2019-05-13T01:12:53.959Z,7.80
2019-05-13T01:15:24.573Z,7.70
2019-05-13T01:17:53.478Z,7.60
2019-05-13T01:20:23.590Z,7.50
2019-05-13T01:22:54.129Z,7.40
2019-05-13T01:25:24.472Z,7.30
2019-05-13T01:27:53.755Z,7.30
2019-05-13T01:30:23.799Z,7.20
2019-05-13T01:32:53.995Z,7.10
2019-05-13T01:35:23.663Z,7.10
2019-05-13T01:37:53.870Z,7.00
2019-05-13T01:40:23.959Z,7.00
2019-05-13T01:42:54.188Z,7.00
2019-05-13T01:45:24.087Z,6.90
2019-05-13T01:47:54.398Z,6.80
2019-05-13T01:50:24.125Z,6.80
2019-05-13T01:52:53.304Z,6.70
2019-05-13T01:55:21.871Z,6.70
2019-05-13T01:57:50.287Z,6.50
2019-05-13T02:00:19.339Z,6.50
2019-05-13T02:02:47.752Z,6.50
2019-05-13T02:05:16.589Z,6.40
2019-05-13T02:07:57.101Z,6.40
2019-05-13T02:10:17.217Z,6.30
2019-05-13T02:12:46.051Z,6.20
2019-05-13T02:15:15.408Z,6.20
2019-05-13T02:17:44.890Z,6.10
2019-05-13T02:20:15.006Z,6.10
2019-05-13T02:22:44.514Z,6.10
2019-05-13T02:25:13.885Z,6.10
2019-05-13T02:27:43.971Z,6.00
2019-05-13T02:30:15.937Z,6.00
2019-05-13T02:32:43.741Z,6.00
2019-05-13T02:35:14.093Z,5.90
2019-05-13T02:37:43.287Z,5.90
2019-05-13T02:40:13.558Z,5.70
2019-05-13T02:42:43.712Z,5.80
2019-05-13T02:45:12.996Z,5.70
2019-05-13T02:47:44.290Z,5.60
2019-05-13T02:50:12.990Z,5.50
2019-05-13T02:52:44.287Z,5.50
2019-05-13T02:55:12.738Z,5.50
2019-05-13T02:57:43.737Z,5.50
2019-05-13T03:00:13.208Z,5.50
2019-05-13T03:02:43.773Z,5.50
2019-05-13T03:05:13.916Z,5.50
2019-05-13T03:07:43.362Z,5.50
2019-05-13T03:10:13.497Z,5.40
2019-05-13T03:12:42.800Z,5.40
2019-05-13T03:15:13.318Z,5.40
2019-05-13T03:17:53.040Z,5.40
2019-05-13T03:20:22.775Z,5.30
2019-05-13T03:22:52.777Z,5.30
2019-05-13T03:25:23.030Z,5.30
2019-05-13T03:27:54.019Z,5.30
2019-05-13T03:30:25.096Z,5.20
2019-05-13T03:33:00.416Z,5.20
2019-05-13T03:35:27.179Z,5.10
2019-05-13T03:37:53.621Z,5.10
2019-05-13T03:40:23.251Z,5.10
2019-05-13T03:42:53.787Z,5.00
2019-05-13T03:45:25.338Z,5.00
2019-05-13T03:47:56.803Z,5.00
2019-05-13T03:50:25.269Z,5.00
2019-05-13T03:52:54.020Z,5.00
2019-05-13T03:55:23.477Z,4.90
2019-05-13T03:57:53.475Z,4.90
2019-05-13T04:00:23.500Z,4.80
2019-05-13T04:02:52.929Z,4.80
2019-05-13T04:05:22.942Z,4.80
2019-05-13T04:07:52.447Z,4.80
2019-05-13T04:10:22.914Z,4.70
2019-05-13T04:12:52.997Z,4.80
2019-05-13T04:15:23.401Z,4.80
2019-05-13T04:17:53.228Z,4.80
2019-05-13T04:20:23.071Z,4.90
2019-05-13T04:22:53.326Z,4.90
2019-05-13T04:25:23.211Z,5.00
2019-05-13T04:27:53.537Z,5.00
2019-05-13T04:30:22.598Z,5.10
2019-05-13T04:32:53.291Z,5.10
2019-05-13T04:35:23.401Z,5.10
2019-05-13T04:37:52.842Z,5.10
2019-05-13T04:40:23.037Z,5.20
2019-05-13T04:42:53.526Z,5.20
2019-05-13T04:45:24.053Z,5.20
2019-05-13T04:47:53.152Z,5.30
2019-05-13T04:50:22.673Z,5.40
2019-05-13T04:52:52.763Z,5.40
2019-05-13T04:55:23.021Z,5.50
2019-05-13T04:57:53.337Z,5.50
2019-05-13T05:00:49.716Z,5.70
2019-05-13T05:03:32.977Z,5.70
2019-05-13T05:06:03.444Z,5.90
2019-05-13T05:08:42.119Z,5.90
2019-05-13T05:11:42.602Z,6.00
2019-05-13T05:14:32.679Z,6.10
2019-05-13T05:17:22.298Z,6.20
2019-05-13T05:20:12.246Z,6.30
2019-05-13T05:23:01.763Z,6.40
2019-05-13T05:25:41.868Z,6.30
2019-05-13T05:28:33.537Z,6.50
2019-05-13T05:31:08.098Z,6.60
2019-05-13T05:33:48.659Z,6.80
2019-05-13T05:36:52.167Z,7.00
2019-05-13T05:39:26.010Z,7.10
2019-05-13T05:41:57.474Z,7.40
2019-05-13T05:44:28.952Z,7.60
2019-05-13T05:47:02.588Z,7.80
2019-05-13T05:49:32.010Z,7.90
2019-05-13T05:52:02.981Z,8.10
2019-05-13T05:54:33.293Z,8.30
2019-05-13T05:57:03.349Z,8.50
2019-05-13T05:59:32.393Z,8.80
2019-05-13T06:02:01.954Z,8.90
2019-05-13T06:04:32.552Z,9.20
2019-05-13T06:07:03.273Z,9.20
2019-05-13T06:09:32.615Z,9.30
2019-05-13T06:12:01.889Z,9.50
2019-05-13T06:14:32.756Z,9.60
2019-05-13T06:17:02.661Z,9.70
2019-05-13T06:19:31.881Z,9.80
2019-05-13T06:22:02.277Z,9.90
2019-05-13T06:24:31.499Z,10.00
2019-05-13T06:27:01.748Z,9.90
2019-05-13T06:29:31.672Z,10.10
2019-05-13T06:32:15.135Z,10.30
2019-05-13T06:34:32.613Z,10.30
2019-05-13T06:37:01.927Z,10.40
2019-05-13T06:39:31.715Z,10.40
2019-05-13T06:42:02.661Z,10.50
2019-05-13T06:44:31.806Z,10.60
2019-05-13T06:47:02.522Z,10.70
2019-05-13T06:49:32.386Z,10.90
2019-05-13T06:52:01.949Z,11.00
2019-05-13T06:54:32.895Z,11.00
2019-05-13T06:57:04.575Z,11.00
2019-05-13T06:59:31.893Z,11.10
2019-05-13T07:02:02.127Z,11.10
2019-05-13T07:04:32.569Z,11.10
2019-05-13T07:07:12.735Z,11.20
2019-05-13T07:09:32.366Z,11.30
2019-05-13T07:12:03.186Z,11.40
2019-05-13T07:14:32.550Z,11.40
2019-05-13T07:17:02.158Z,11.50
2019-05-13T07:19:32.217Z,11.50
2019-05-13T07:22:02.844Z,11.60
2019-05-13T07:24:32.298Z,11.80
2019-05-13T07:27:01.855Z,11.60
2019-05-13T07:29:32.415Z,11.60
2019-05-13T07:32:01.997Z,11.60
2019-05-13T07:34:33.697Z,11.50
2019-05-13T07:37:02.149Z,11.60
2019-05-13T07:39:32.691Z,11.50
2019-05-13T07:42:05.247Z,11.50
2019-05-13T07:44:32.522Z,11.50
2019-05-13T07:47:03.303Z,11.60
2019-05-13T07:49:32.029Z,11.50
2019-05-13T07:52:01.670Z,11.50
2019-05-13T07:54:33.040Z,11.50
2019-05-13T07:57:02.069Z,11.50
2019-05-13T07:59:31.822Z,11.60
2019-05-13T08:02:02.023Z,11.60
2019-05-13T08:04:33.380Z,11.70
2019-05-13T08:07:02.188Z,11.60
2019-05-13T08:09:31.903Z,11.70
2019-05-13T08:12:09.852Z,11.70
2019-05-13T08:14:32.664Z,11.70
2019-05-13T08:17:02.591Z,11.70
2019-05-13T08:19:32.481Z,11.70
2019-05-13T08:22:02.167Z,11.90
2019-05-13T08:24:31.596Z,12.00
2019-05-13T08:27:01.970Z,12.00
2019-05-13T08:29:32.897Z,11.90
2019-05-13T08:32:02.889Z,12.00
2019-05-13T08:34:32.996Z,12.20
2019-05-13T08:37:02.742Z,12.20
2019-05-13T08:39:36.575Z,12.30
2019-05-13T08:42:12.906Z,12.30
2019-05-13T08:44:32.863Z,12.50
2019-05-13T08:47:03.129Z,12.60
2019-05-13T08:49:32.695Z,12.70
2019-05-13T08:52:02.203Z,12.80
2019-05-13T08:54:32.757Z,12.80
2019-05-13T08:57:02.782Z,12.70
2019-05-13T08:59:32.058Z,12.80
2019-05-13T09:02:03.115Z,12.90
2019-05-13T09:04:31.588Z,12.90
2019-05-13T09:07:02.277Z,13.00
2019-05-13T09:09:31.513Z,13.00
2019-05-13T09:12:02.552Z,13.00
2019-05-13T09:14:32.366Z,13.10
2019-05-13T09:17:01.926Z,13.20
2019-05-13T09:19:32.271Z,13.20
2019-05-13T09:22:03.106Z,13.30
2019-05-13T09:24:37.268Z,13.40
2019-05-13T09:27:02.143Z,13.30
2019-05-13T09:29:32.261Z,13.30
2019-05-13T09:32:03.919Z,13.30
2019-05-13T09:34:32.853Z,13.30
2019-05-13T09:37:02.878Z,13.40
2019-05-13T09:39:32.474Z,13.60
2019-05-13T09:42:02.775Z,13.70
2019-05-13T09:44:33.082Z,13.80
2019-05-13T09:47:02.558Z,13.90
2019-05-13T09:49:32.837Z,13.90
2019-05-13T09:52:01.951Z,14.00
2019-05-13T09:54:32.565Z,14.10
2019-05-13T09:57:01.921Z,14.20
2019-05-13T09:59:31.794Z,14.30
2019-05-13T10:02:03.087Z,14.20
2019-05-13T10:04:31.805Z,14.20
2019-05-13T10:07:02.177Z,14.30
2019-05-13T10:09:32.539Z,14.40
2019-05-13T10:12:03.223Z,14.40
2019-05-13T10:14:32.716Z,14.60
2019-05-13T10:17:06.164Z,14.70
2019-05-13T10:19:32.844Z,14.90
2019-05-13T10:22:01.925Z,15.00
2019-05-13T10:24:32.719Z,14.90
2019-05-13T10:27:02.425Z,15.00
2019-05-13T10:29:32.065Z,15.00
2019-05-13T10:32:02.825Z,15.10
2019-05-13T10:34:32.135Z,15.10
2019-05-13T10:37:02.557Z,15.30
2019-05-13T10:39:31.251Z,15.40
2019-05-13T10:42:02.984Z,15.60
2019-05-13T10:44:29.863Z,15.70
2019-05-13T10:46:58.283Z,15.80
2019-05-13T10:49:26.688Z,16.00
2019-05-13T10:51:55.196Z,16.10
2019-05-13T10:54:23.599Z,16.20
2019-05-13T10:56:54.246Z,16.20
2019-05-13T10:59:23.181Z,16.20
2019-05-13T11:01:52.059Z,16.30
2019-05-13T11:04:22.237Z,16.30
2019-05-13T11:06:52.485Z,16.20
2019-05-13T11:11:52.951Z,16.20
2019-05-13T11:14:22.159Z,16.20
2019-05-13T11:16:52.411Z,16.30
2019-05-13T11:19:23.199Z,16.50
2019-05-13T11:21:51.732Z,17.00
2019-05-13T11:24:22.589Z,17.90
2019-05-13T11:26:53.117Z,18.60
2019-05-13T11:29:22.985Z,19.50
2019-05-13T11:31:52.335Z,20.30
2019-05-13T11:34:22.172Z,20.70
2019-05-13T11:36:53.404Z,21.50
2019-05-13T11:39:22.015Z,22.30
2019-05-13T11:41:50.888Z,22.10
2019-05-13T11:44:19.325Z,22.70
2019-05-13T11:46:48.795Z,23.50
2019-05-13T11:49:17.509Z,23.60
2019-05-13T11:51:46.200Z,24.00
2019-05-13T11:54:14.666Z,25.00
2019-05-13T11:56:49.340Z,26.20
2019-05-13T11:59:14.098Z,26.20
2019-05-13T12:01:42.996Z,26.20
2019-05-13T12:04:11.592Z,26.50
2019-05-13T12:06:48.533Z,26.90
2019-05-13T12:09:13.131Z,27.40
2019-05-13T12:11:40.641Z,28.30
2019-05-13T12:14:34.773Z,28.10
2019-05-13T12:16:41.584Z,27.80
2019-05-13T12:19:11.801Z,28.10
2019-05-13T12:21:43.223Z,28.50
2019-05-13T12:24:11.295Z,28.80
2019-05-13T12:26:43.126Z,29.50
2019-05-13T12:29:18.337Z,29.80
2019-05-13T12:31:40.504Z,30.20
2019-05-13T12:34:12.691Z,30.90
2019-05-13T12:36:42.925Z,31.40
2019-05-13T12:39:13.822Z,31.20
2019-05-13T12:41:42.772Z,31.10
2019-05-13T12:44:12.789Z,30.80
2019-05-13T12:46:41.514Z,30.40
2019-05-13T12:49:14.217Z,31.30
2019-05-13T12:51:43.930Z,31.40
2019-05-13T12:54:13.575Z,32.00
2019-05-13T12:56:42.546Z,31.40
2019-05-13T12:59:13.283Z,31.60
2019-05-13T13:01:41.517Z,31.50
2019-05-13T13:04:12.346Z,31.40
2019-05-13T13:06:45.144Z,32.40
2019-05-13T13:09:12.759Z,32.50
2019-05-13T13:11:43.488Z,32.40
2019-05-13T13:14:15.125Z,32.00
2019-05-13T13:16:42.418Z,31.30
2019-05-13T13:19:14.655Z,31.20
2019-05-13T13:21:41.597Z,31.70
2019-05-13T13:24:12.293Z,32.00
2019-05-13T13:26:42.426Z,32.30
2019-05-13T13:29:10.707Z,32.80
2019-05-13T13:31:43.123Z,32.80
2019-05-13T13:34:16.341Z,33.40
2019-05-13T13:36:45.285Z,33.90
2019-05-13T13:39:13.738Z,35.30
2019-05-13T13:41:43.526Z,36.00
2019-05-13T13:44:12.362Z,35.30
2019-05-13T13:46:44.504Z,36.30
2019-05-13T13:49:12.962Z,36.50
2019-05-13T13:51:44.697Z,37.00
2019-05-13T13:54:12.026Z,37.30
2019-05-13T13:56:43.823Z,36.60
2019-05-13T13:59:13.849Z,36.70
2019-05-13T14:01:41.180Z,36.90
2019-05-13T14:04:10.979Z,36.20
2019-05-13T14:07:02.936Z,16.20
2019-05-13T14:09:12.018Z,35.40
2019-05-13T14:11:42.033Z,36.00
2019-05-13T14:14:12.422Z,35.90
2019-05-13T14:16:42.733Z,36.20
2019-05-13T14:19:11.232Z,35.90
2019-05-13T14:21:41.642Z,35.50
2019-05-13T14:24:12.138Z,35.10
2019-05-13T14:26:43.143Z,34.70
2019-05-13T14:29:12.309Z,36.10
2019-05-13T14:31:41.452Z,37.40
2019-05-13T14:34:11.447Z,37.30
2019-05-13T14:36:40.269Z,37.90
2019-05-13T14:39:11.858Z,38.40
2019-05-13T14:41:39.362Z,38.30
2019-05-13T14:44:07.772Z,38.00
2019-05-13T14:46:47.343Z,37.80
2019-05-13T14:49:06.525Z,38.50
2019-05-13T14:55:04.891Z,39.80
2019-05-13T14:57:33.336Z,40.30
2019-05-13T15:00:02.557Z,39.20
2019-05-13T15:02:32.099Z,39.70
2019-05-13T15:05:02.680Z,39.20
2019-05-13T15:07:32.197Z,38.30
2019-05-13T15:10:02.458Z,38.60
2019-05-13T15:12:32.321Z,38.30
2019-05-13T15:15:01.610Z,38.00
2019-05-13T15:17:32.408Z,37.80
2019-05-13T15:20:01.871Z,36.60
2019-05-13T15:22:31.904Z,36.50
2019-05-13T15:25:02.700Z,36.00
2019-05-13T15:27:31.801Z,36.30
2019-05-13T15:30:14.418Z,37.20
2019-05-13T15:32:32.554Z,37.00
2019-05-13T15:35:02.153Z,36.60
2019-05-13T15:37:32.124Z,36.60
2019-05-13T15:40:02.306Z,36.30
2019-05-13T15:42:31.880Z,36.20
2019-05-13T15:45:01.782Z,36.30
2019-05-13T15:47:30.778Z,36.20
2019-05-13T15:50:02.153Z,36.50
2019-05-13T15:52:31.667Z,37.70
2019-05-13T15:55:01.444Z,37.70
2019-05-13T15:57:31.897Z,37.20
2019-05-13T16:00:01.920Z,36.70
2019-05-13T16:02:31.407Z,35.50
2019-05-13T16:05:02.291Z,36.30
2019-05-13T16:07:30.116Z,36.70
2019-05-13T16:09:58.859Z,37.40
2019-05-13T16:12:27.576Z,37.70
2019-05-13T16:14:56.058Z,37.90
2019-05-13T16:17:37.916Z,37.50
2019-05-13T16:19:54.657Z,38.00
2019-05-13T16:22:23.510Z,38.00
2019-05-13T16:24:52.448Z,38.60
2019-05-13T16:27:21.670Z,38.50
2019-05-13T16:29:51.658Z,36.60
2019-05-13T16:32:22.709Z,36.20
2019-05-13T16:34:51.903Z,35.80
2019-05-13T16:37:21.942Z,35.30
2019-05-13T16:39:51.999Z,35.00
2019-05-13T16:42:22.482Z,34.80
2019-05-13T16:44:51.678Z,35.30
2019-05-13T16:47:21.268Z,35.80
2019-05-13T16:49:49.839Z,35.50
2019-05-13T16:52:18.247Z,34.70
2019-05-13T16:54:46.681Z,34.20
2019-05-13T16:57:15.113Z,33.60
2019-05-13T16:59:43.622Z,33.00
2019-05-13T17:02:12.764Z,32.80
2019-05-13T17:04:41.519Z,33.30
2019-05-13T17:07:10.051Z,33.40
2019-05-13T17:09:38.798Z,33.40
2019-05-13T17:12:07.290Z,33.00
2019-05-13T17:14:35.717Z,32.50
2019-05-13T17:17:04.146Z,32.70
2019-05-13T17:19:32.567Z,33.00
2019-05-13T17:22:02.565Z,33.10
2019-05-13T17:24:32.000Z,32.70
2019-05-13T17:27:01.844Z,32.70
2019-05-13T17:29:31.757Z,33.30
2019-05-13T17:32:02.357Z,32.80
2019-05-13T17:34:31.883Z,31.80
2019-05-13T17:37:02.571Z,31.60
2019-05-13T17:39:32.158Z,31.10
2019-05-13T17:42:01.445Z,31.30
2019-05-13T17:44:31.885Z,31.00
2019-05-13T17:47:01.692Z,29.70
2019-05-13T17:49:31.861Z,28.70
2019-05-13T17:52:02.440Z,27.70
2019-05-13T17:54:31.881Z,27.10
2019-05-13T17:57:01.822Z,25.90
2019-05-13T17:59:31.438Z,25.40
2019-05-13T18:02:02.544Z,24.80
2019-05-13T18:04:31.406Z,24.40
2019-05-13T18:07:01.609Z,23.70
2019-05-13T18:09:31.951Z,23.10
2019-05-13T18:12:02.394Z,22.40
2019-05-13T18:14:31.085Z,22.30
2019-05-13T18:17:01.415Z,22.10
2019-05-13T18:19:31.480Z,21.70
2019-05-13T18:22:01.961Z,21.40
2019-05-13T18:24:32.044Z,21.10
2019-05-13T18:27:01.397Z,21.00
2019-05-13T18:29:31.614Z,20.90
2019-05-13T18:32:01.983Z,20.90
2019-05-13T18:34:32.137Z,20.50
2019-05-13T18:37:02.379Z,20.50
2019-05-13T18:39:32.217Z,20.30
2019-05-13T18:42:01.044Z,20.10
2019-05-13T18:44:31.674Z,19.90
2019-05-13T18:47:01.517Z,19.80
2019-05-13T18:49:31.819Z,19.80
2019-05-13T18:52:00.733Z,19.90
2019-05-13T18:54:31.377Z,20.10
2019-05-13T18:57:01.511Z,20.20
2019-05-13T18:59:31.999Z,19.90
2019-05-13T19:02:01.524Z,20.10
2019-05-13T19:04:31.270Z,20.00
2019-05-13T19:07:02.049Z,19.90
2019-05-13T19:09:31.094Z,19.80
2019-05-13T19:12:01.421Z,19.80
2019-05-13T19:14:31.803Z,19.60
2019-05-13T19:17:00.517Z,19.60
2019-05-13T19:19:28.940Z,19.50
2019-05-13T19:21:57.362Z,19.50
2019-05-13T19:24:25.779Z,19.40
2019-05-13T19:26:54.215Z,19.30
2019-05-13T19:29:22.693Z,19.30
2019-05-13T19:31:51.144Z,19.20
2019-05-13T19:34:21.514Z,19.10
2019-05-13T19:36:51.611Z,18.90
2019-05-13T19:39:21.636Z,18.70
2019-05-13T19:41:50.217Z,18.60
2019-05-13T19:44:18.673Z,18.60
2019-05-13T19:46:47.507Z,18.40
2019-05-13T19:49:28.716Z,18.40
2019-05-13T19:51:46.466Z,18.30
2019-05-13T19:54:15.156Z,18.30
2019-05-13T19:56:43.567Z,18.20
2019-05-13T19:59:12.516Z,18.10
2019-05-13T20:01:42.334Z,17.90
2019-05-13T20:04:10.943Z,17.80
2019-05-13T20:06:41.463Z,17.70
2019-05-13T20:09:09.758Z,17.60
2019-05-13T20:11:38.220Z,17.50
2019-05-13T20:14:06.643Z,17.30
2019-05-13T20:16:35.215Z,17.30
2019-05-13T20:19:04.133Z,17.20
2019-05-13T20:21:33.180Z,17.20
2019-05-13T20:24:01.688Z,17.30
2019-05-13T20:26:32.225Z,17.30
2019-05-13T20:29:01.622Z,17.20
2019-05-13T20:31:32.067Z,17.00
2019-05-13T20:34:01.718Z,16.90
2019-05-13T20:36:31.539Z,16.90
2019-05-13T20:39:02.077Z,16.70
2019-05-13T20:41:31.712Z,16.80
2019-05-13T20:44:01.505Z,16.50
2019-05-13T20:46:32.536Z,16.40
2019-05-13T20:49:00.276Z,16.30
2019-05-13T20:51:28.712Z,16.20
2019-05-13T20:53:57.216Z,16.20
2019-05-13T20:56:25.645Z,16.10
2019-05-13T20:58:54.303Z,16.00
2019-05-13T21:01:22.791Z,15.80
2019-05-13T21:03:51.675Z,15.90
2019-05-13T21:06:22.083Z,16.00
2019-05-13T21:08:52.173Z,16.10
2019-05-13T21:11:20.859Z,16.10
2019-05-13T21:13:51.590Z,16.10
2019-05-13T21:16:21.757Z,16.10
2019-05-13T21:18:49.838Z,15.80
2019-05-13T21:21:18.260Z,15.70
2019-05-13T21:23:46.705Z,15.60
2019-05-13T21:26:15.837Z,15.50
2019-05-13T21:28:44.426Z,15.50
2019-05-13T21:31:12.869Z,15.40
2019-05-13T21:33:41.301Z,15.40
2019-05-13T21:36:12.081Z,15.30
2019-05-13T21:38:40.690Z,15.20
2019-05-13T21:41:09.118Z,15.20
2019-05-13T21:43:37.552Z,15.30
2019-05-13T21:46:06.008Z,15.20
2019-05-13T21:48:34.430Z,15.20
2019-05-13T21:51:02.879Z,15.10
2019-05-13T21:53:32.534Z,14.90
2019-05-13T21:56:02.296Z,14.70
2019-05-13T21:58:31.308Z,14.60
2019-05-13T22:01:01.708Z,14.50
2019-05-13T22:03:33.235Z,14.30
2019-05-13T22:06:01.956Z,14.00
2019-05-13T22:08:32.146Z,14.00
2019-05-13T22:11:01.742Z,13.80
2019-05-13T22:13:31.614Z,13.50
2019-05-13T22:16:01.632Z,13.60
2019-05-13T22:18:31.392Z,13.50
2019-05-13T22:21:01.302Z,13.50
2019-05-13T22:23:32.058Z,13.50
2019-05-13T22:26:01.703Z,13.50
2019-05-13T22:28:31.311Z,13.50
2019-05-13T22:31:01.341Z,13.50
2019-05-13T22:33:32.150Z,13.50
2019-05-13T22:36:01.650Z,13.40
2019-05-13T22:38:32.256Z,13.30
2019-05-13T22:41:01.435Z,13.20
2019-05-13T22:43:31.963Z,13.10
2019-05-13T22:46:00.186Z,13.10
2019-05-13T22:48:28.609Z,13.00
2019-05-13T22:50:57.034Z,13.00
2019-05-13T22:53:25.781Z,12.90
2019-05-13T22:55:54.463Z,13.00
2019-05-13T22:58:23.167Z,12.90
2019-05-13T23:00:51.837Z,13.00
2019-05-13T23:03:20.379Z,13.00
2019-05-13T23:05:48.797Z,12.90
2019-05-13T23:08:17.220Z,12.90
2019-05-13T23:10:45.943Z,12.90
2019-05-13T23:13:14.359Z,12.70
2019-05-13T23:15:42.770Z,12.70
2019-05-13T23:18:11.764Z,12.50
2019-05-13T23:20:41.100Z,12.50
2019-05-13T23:23:11.669Z,12.50
2019-05-13T23:25:40.941Z,12.40
2019-05-13T23:28:11.200Z,12.30
2019-05-13T23:30:41.743Z,12.20
2019-05-13T23:33:11.631Z,12.10
2019-05-13T23:35:41.740Z,12.20
2019-05-13T23:38:10.610Z,12.20
2019-05-13T23:40:39.036Z,12.00
2019-05-13T23:43:07.898Z,12.10
2019-05-13T23:45:36.424Z,12.10
2019-05-13T23:48:05.149Z,12.00
2019-05-13T23:50:33.617Z,12.00
2019-05-13T23:53:02.063Z,11.90
2019-05-13T23:55:32.213Z,11.80
2019-05-13T23:58:01.751Z,11.70
